createdAt,value
2023-01-09T00:01:59.068Z,96395.09
2023-01-09T00:04:29.371Z,96390.75
2023-01-09T00:06:59.581Z,96389.59
2023-01-09T00:09:30.255Z,96389.03
2023-01-09T00:12:00.699Z,96398.97
2023-01-09T00:14:33.385Z,96391.88
2023-01-09T00:17:03.906Z,96382.47
2023-01-09T00:19:34.105Z,96386.75
2023-01-09T00:22:04.146Z,96375.00
2023-01-09T00:24:34.165Z,96375.72
2023-01-09T00:27:04.548Z,96369.13
2023-01-09T00:29:37.640Z,96370.66
2023-01-09T00:32:12.370Z,96367.28
2023-01-09T00:34:43.366Z,96385.00
2023-01-09T00:37:14.535Z,96369.16
2023-01-09T00:39:45.554Z,96384.88
2023-01-09T00:42:24.568Z,96377.28
2023-01-09T00:45:04.097Z,96383.19
2023-01-09T00:47:42.872Z,96391.78
2023-01-09T00:50:29.396Z,96391.78
2023-01-09T00:53:04.099Z,96392.53
2023-01-09T00:55:34.389Z,96384.69
2023-01-09T00:58:04.629Z,96376.63
2023-01-09T01:00:37.723Z,96382.75
2023-01-09T01:03:09.478Z,96373.97
2023-01-09T01:05:52.166Z,96373.34
2023-01-09T01:08:23.317Z,96379.41
2023-01-09T01:10:53.475Z,96384.28
2023-01-09T01:13:23.520Z,96385.19
2023-01-09T01:15:56.125Z,96381.06
2023-01-09T01:18:26.434Z,96378.94
2023-01-09T01:20:56.690Z,96382.09
2023-01-09T01:23:26.990Z,96380.13
2023-01-09T01:25:57.028Z,96376.75
2023-01-09T01:28:27.049Z,96368.81
2023-01-09T01:30:59.931Z,96377.53
2023-01-09T01:33:30.066Z,96371.44
2023-01-09T01:36:04.964Z,96370.75
2023-01-09T01:38:36.543Z,96379.06
2023-01-09T01:41:08.075Z,96369.63
2023-01-09T01:43:54.505Z,96368.84
2023-01-09T01:46:27.619Z,96368.94
2023-01-09T01:49:03.943Z,96368.22
2023-01-09T01:51:39.513Z,96364.22
2023-01-09T01:54:17.675Z,96366.75
2023-01-09T01:56:51.541Z,96370.47
2023-01-09T01:59:27.517Z,96367.78
2023-01-09T02:02:03.867Z,96370.94
2023-01-09T02:04:39.294Z,96371.56
2023-01-09T02:07:12.885Z,96369.66
2023-01-09T02:09:45.277Z,96369.69
2023-01-09T02:12:23.928Z,96381.75
2023-01-09T02:14:59.949Z,96381.44
2023-01-09T02:18:06.232Z,96374.63
2023-01-09T02:20:56.376Z,96359.28
2023-01-09T02:24:09.991Z,96360.72
2023-01-09T02:27:11.545Z,96354.38
2023-01-09T02:30:25.244Z,96365.28
2023-01-09T02:33:28.430Z,96351.72
2023-01-09T02:36:13.537Z,96344.09
2023-01-09T02:38:59.325Z,96340.78
2023-01-09T02:41:40.343Z,96349.50
2023-01-09T02:44:26.980Z,96367.06
2023-01-09T02:47:05.703Z,96381.50
2023-01-09T02:49:42.768Z,96390.03
2023-01-09T02:52:33.656Z,96386.09
2023-01-09T02:55:14.568Z,96392.28
2023-01-09T02:57:59.563Z,96398.13
2023-01-09T03:00:46.109Z,96403.25
2023-01-09T03:03:27.592Z,96396.94
2023-01-09T03:06:18.730Z,96402.78
2023-01-09T03:08:55.527Z,96410.22
2023-01-09T03:11:30.154Z,96414.50
2023-01-09T03:14:12.264Z,96412.97
2023-01-09T03:16:45.697Z,96418.28
2023-01-09T03:19:22.098Z,96417.28
2023-01-09T03:21:57.851Z,96418.44
2023-01-09T03:24:28.015Z,96420.91
2023-01-09T03:26:58.245Z,96419.31
2023-01-09T03:29:29.787Z,96424.34
2023-01-09T03:31:59.824Z,96409.91
2023-01-09T03:34:29.930Z,96419.66
2023-01-09T03:37:04.558Z,96428.91
2023-01-09T03:39:35.399Z,96446.69
2023-01-09T03:42:05.606Z,96449.28
2023-01-09T03:44:35.658Z,96457.22
2023-01-09T03:47:05.643Z,96458.41
2023-01-09T03:49:35.660Z,96468.16
2023-01-09T03:52:08.621Z,96481.94
2023-01-09T03:54:39.451Z,96479.81
2023-01-09T03:57:09.492Z,96486.94
2023-01-09T03:59:39.991Z,96487.53
2023-01-09T04:02:10.339Z,96494.59
2023-01-09T04:04:40.741Z,96498.88
2023-01-09T04:07:13.554Z,96510.72
2023-01-09T04:09:43.601Z,96515.94
2023-01-09T04:12:14.411Z,96521.00
2023-01-09T04:14:44.409Z,96533.50
2023-01-09T04:17:16.658Z,96551.44
2023-01-09T04:19:46.933Z,96554.94
2023-01-09T04:22:19.650Z,96576.53
2023-01-09T04:24:49.999Z,96586.88
2023-01-09T04:27:20.036Z,96587.66
2023-01-09T04:29:50.110Z,96598.75
2023-01-09T04:32:20.519Z,96605.63
2023-01-09T04:34:50.916Z,96606.41
2023-01-09T04:37:24.260Z,96615.75
2023-01-09T04:39:56.084Z,96619.66
2023-01-09T04:42:26.790Z,96623.34
2023-01-09T04:44:56.956Z,96642.81
2023-01-09T04:47:26.968Z,96647.44
2023-01-09T04:49:57.264Z,96651.72
2023-01-09T04:52:30.195Z,96657.94
2023-01-09T04:55:01.062Z,96655.78
2023-01-09T04:57:31.084Z,96654.56
2023-01-09T05:00:01.163Z,96655.69
2023-01-09T05:02:31.221Z,96654.72
2023-01-09T05:05:01.367Z,96655.84
2023-01-09T05:07:34.403Z,96662.25
2023-01-09T05:10:05.127Z,96669.63
2023-01-09T05:12:36.530Z,96669.00
2023-01-09T05:15:07.807Z,96674.59
2023-01-09T05:17:37.952Z,96680.44
2023-01-09T05:20:09.391Z,96688.59
2023-01-09T05:22:42.148Z,96695.25
2023-01-09T05:25:12.802Z,96708.47
2023-01-09T05:27:46.202Z,96716.84
2023-01-09T05:30:18.354Z,96717.38
2023-01-09T05:32:48.980Z,96730.94
2023-01-09T05:35:20.566Z,96730.13
2023-01-09T05:37:53.221Z,96749.31
2023-01-09T05:40:29.063Z,96749.84
2023-01-09T05:43:02.612Z,96757.22
2023-01-09T05:45:32.706Z,96768.28
2023-01-09T05:48:02.813Z,96768.38
2023-01-09T05:50:32.882Z,96765.94
2023-01-09T05:53:06.783Z,96774.84
2023-01-09T05:55:37.461Z,96770.75
2023-01-09T05:58:07.643Z,96767.75
2023-01-09T06:00:37.864Z,96775.44
2023-01-09T06:03:08.059Z,96779.88
2023-01-09T06:05:38.289Z,96786.34
2023-01-09T06:08:11.321Z,96785.50
2023-01-09T06:10:41.562Z,96788.81
2023-01-09T06:13:11.725Z,96802.53
2023-01-09T06:15:42.145Z,96799.97
2023-01-09T06:18:12.356Z,96802.22
2023-01-09T06:20:42.406Z,96810.41
2023-01-09T06:23:15.165Z,96798.94
2023-01-09T06:25:45.763Z,96793.81
2023-01-09T06:28:15.793Z,96795.63
2023-01-09T06:30:46.610Z,96794.09
2023-01-09T06:33:16.661Z,96792.69
2023-01-09T06:35:46.862Z,96800.75
2023-01-09T06:38:19.640Z,96802.13
2023-01-09T06:40:50.928Z,96806.13
2023-01-09T06:43:21.052Z,96812.56
2023-01-09T06:45:51.370Z,96812.31
2023-01-09T06:48:21.505Z,96804.16
2023-01-09T06:50:51.920Z,96806.41
2023-01-09T06:53:24.724Z,96813.44
2023-01-09T06:55:54.979Z,96818.03
2023-01-09T06:58:26.069Z,96814.72
2023-01-09T07:00:56.344Z,96808.84
2023-01-09T07:03:26.634Z,96807.59
2023-01-09T07:05:56.768Z,96803.59
2023-01-09T07:08:29.838Z,96814.00
2023-01-09T07:10:59.860Z,96828.34
2023-01-09T07:13:30.031Z,96827.63
2023-01-09T07:16:00.081Z,96833.19
2023-01-09T07:18:30.143Z,96834.63
2023-01-09T07:21:00.536Z,96837.91
2023-01-09T07:23:33.623Z,96844.50
2023-01-09T07:26:04.503Z,96846.91
2023-01-09T07:28:34.702Z,96847.78
2023-01-09T07:31:07.647Z,96855.13
2023-01-09T07:33:38.274Z,96855.41
2023-01-09T07:36:09.517Z,96869.59
2023-01-09T07:38:42.388Z,96857.56
2023-01-09T07:41:12.537Z,96861.97
2023-01-09T07:43:42.847Z,96874.25
2023-01-09T07:46:13.001Z,96873.31
2023-01-09T07:48:43.364Z,96880.75
2023-01-09T07:51:13.710Z,96878.41
2023-01-09T07:53:46.454Z,96881.16
2023-01-09T07:56:16.493Z,96887.97
2023-01-09T07:58:46.541Z,96892.81
2023-01-09T08:01:16.728Z,96885.66
2023-01-09T08:03:47.097Z,96878.41
2023-01-09T08:06:17.220Z,96894.66
2023-01-09T08:08:50.174Z,96887.91
2023-01-09T08:11:20.294Z,96884.16
2023-01-09T08:13:50.658Z,96883.72
2023-01-09T08:16:20.945Z,96884.69
2023-01-09T08:18:51.113Z,96887.56
2023-01-09T08:21:21.428Z,96874.78
2023-01-09T08:23:54.329Z,96881.38
2023-01-09T08:26:24.433Z,96877.03
2023-01-09T08:28:54.493Z,96879.75
2023-01-09T08:31:24.657Z,96872.59
2023-01-09T08:33:54.947Z,96886.31
2023-01-09T08:36:25.388Z,96879.28
2023-01-09T08:38:58.458Z,96883.19
2023-01-09T08:41:41.362Z,96884.06
2023-01-09T08:44:24.207Z,96878.16
2023-01-09T08:47:15.561Z,96877.72
2023-01-09T08:49:45.761Z,96873.16
2023-01-09T08:52:16.309Z,96873.53
2023-01-09T08:54:49.323Z,96866.63
2023-01-09T08:57:19.717Z,96877.38
2023-01-09T08:59:50.065Z,96882.53
2023-01-09T09:02:20.438Z,96874.03
2023-01-09T09:04:53.058Z,96877.41
2023-01-09T09:07:27.031Z,96870.13
2023-01-09T09:09:59.690Z,96870.13
2023-01-09T09:12:30.382Z,96870.91
2023-01-09T09:15:16.988Z,96880.38
2023-01-09T09:17:47.474Z,96877.03
2023-01-09T09:20:18.789Z,96876.53
2023-01-09T09:22:49.980Z,96871.34
2023-01-09T09:25:23.688Z,96870.84
2023-01-09T09:27:56.004Z,96878.78
2023-01-09T09:30:27.788Z,96884.28
2023-01-09T09:32:58.081Z,96884.16
2023-01-09T09:35:28.618Z,96875.25
2023-01-09T09:38:04.670Z,96867.91
2023-01-09T09:41:08.464Z,96874.97
2023-01-09T09:44:15.430Z,96878.50
2023-01-09T09:46:56.596Z,96892.19
2023-01-09T09:49:37.142Z,96896.31
2023-01-09T09:52:22.076Z,96902.94
2023-01-09T09:54:53.332Z,96902.34
2023-01-09T09:57:37.315Z,96900.22
2023-01-09T10:00:10.572Z,96897.34
2023-01-09T10:02:51.900Z,96891.78
2023-01-09T10:05:30.301Z,96890.47
2023-01-09T10:08:15.891Z,96899.47
2023-01-09T10:10:55.497Z,96883.91
2023-01-09T10:13:41.669Z,96879.63
2023-01-09T10:16:31.775Z,96881.16
2023-01-09T10:19:23.118Z,96871.09
2023-01-09T10:22:10.809Z,96867.59
2023-01-09T10:25:06.879Z,96872.63
2023-01-09T10:28:01.999Z,96873.03
2023-01-09T10:30:45.107Z,96864.84
2023-01-09T10:33:38.536Z,96861.47
2023-01-09T10:36:38.339Z,96865.50
2023-01-09T10:39:18.224Z,96867.16
2023-01-09T10:42:01.895Z,96868.00
2023-01-09T10:44:39.101Z,96863.41
2023-01-09T10:47:20.716Z,96859.47
2023-01-09T10:49:55.384Z,96866.97
2023-01-09T10:52:36.092Z,96874.53
2023-01-09T10:55:19.812Z,96869.53
2023-01-09T10:57:55.919Z,96871.56
2023-01-09T11:00:28.412Z,96862.00
2023-01-09T11:03:01.471Z,96862.94
2023-01-09T11:05:34.359Z,96870.38
2023-01-09T11:08:23.042Z,96862.97
2023-01-09T11:10:57.008Z,96856.31
2023-01-09T11:13:30.346Z,96857.66
2023-01-09T11:16:08.460Z,96850.16
2023-01-09T11:18:50.777Z,96842.50
2023-01-09T11:21:36.267Z,96852.66
2023-01-09T11:24:31.490Z,96849.94
2023-01-09T11:27:28.534Z,96853.34
2023-01-09T11:30:31.163Z,96852.00
2023-01-09T11:33:02.626Z,96848.97
2023-01-09T11:35:42.371Z,96851.47
2023-01-09T11:38:20.597Z,96845.31
2023-01-09T11:40:54.222Z,96844.91
2023-01-09T11:43:38.033Z,96842.00
2023-01-09T11:46:11.675Z,96841.09
2023-01-09T11:48:57.070Z,96842.84
2023-01-09T11:51:32.403Z,96846.50
2023-01-09T11:54:25.857Z,96842.59
2023-01-09T11:56:56.318Z,96836.31
2023-01-09T11:59:31.815Z,96838.94
2023-01-09T12:02:55.497Z,96830.63
2023-01-09T12:05:39.377Z,96831.25
2023-01-09T12:08:37.552Z,96833.31
2023-01-09T12:11:32.152Z,96835.78
2023-01-09T12:14:24.832Z,96832.09
2023-01-09T12:17:38.119Z,96827.91
2023-01-09T12:20:32.059Z,96824.44
2023-01-09T12:23:25.365Z,96843.03
2023-01-09T12:26:16.324Z,96834.63
2023-01-09T12:29:24.721Z,96836.69
2023-01-09T12:32:16.015Z,96838.03
2023-01-09T12:35:03.317Z,96840.34
2023-01-09T12:38:08.005Z,96844.91
2023-01-09T12:41:01.479Z,96849.22
2023-01-09T12:43:47.198Z,96848.94
2023-01-09T12:46:22.530Z,96847.28
2023-01-09T12:49:22.732Z,96852.72
2023-01-09T12:52:02.876Z,96850.31
2023-01-09T12:54:43.937Z,96850.38
2023-01-09T12:57:24.862Z,96849.63
2023-01-09T13:00:00.093Z,96840.22
2023-01-09T13:02:38.085Z,96834.31
2023-01-09T13:05:19.788Z,96844.50
2023-01-09T13:07:57.516Z,96831.06
2023-01-09T13:10:33.735Z,96834.22
2023-01-09T13:13:18.719Z,96834.31
2023-01-09T13:15:55.820Z,96819.22
2023-01-09T13:18:40.996Z,96826.81
2023-01-09T13:21:12.692Z,96841.25
2023-01-09T13:23:56.855Z,96842.66
2023-01-09T13:26:32.650Z,96848.09
2023-01-09T13:29:17.009Z,96861.66
2023-01-09T13:32:15.506Z,96865.47
2023-01-09T13:34:52.727Z,96880.22
2023-01-09T13:37:29.689Z,96874.75
2023-01-09T13:40:02.629Z,96866.66
2023-01-09T13:42:40.791Z,96864.56
2023-01-09T13:45:29.942Z,96877.63
2023-01-09T13:48:42.433Z,96868.28
2023-01-09T13:51:55.874Z,96873.75
2023-01-09T13:55:23.991Z,96881.16
2023-01-09T13:58:26.281Z,96878.03
2023-01-09T14:01:03.366Z,96879.59
2023-01-09T14:03:40.190Z,96879.56
2023-01-09T14:06:21.655Z,96885.41
2023-01-09T14:09:10.977Z,96880.72
2023-01-09T14:11:41.680Z,96897.44
2023-01-09T14:14:30.375Z,96907.19
2023-01-09T14:17:04.864Z,96904.81
2023-01-09T14:19:42.649Z,96916.69
2023-01-09T14:22:29.573Z,96919.59
2023-01-09T14:25:09.486Z,96930.72
2023-01-09T14:28:23.479Z,96937.53
2023-01-09T14:31:13.213Z,96948.03
2023-01-09T14:33:50.925Z,96939.09
2023-01-09T14:36:29.674Z,96958.03
2023-01-09T14:39:05.383Z,96951.19
2023-01-09T14:42:00.515Z,96964.38
2023-01-09T14:44:34.156Z,96955.28
2023-01-09T14:47:17.705Z,96961.78
2023-01-09T14:50:04.175Z,96965.41
2023-01-09T14:52:40.398Z,96972.78
2023-01-09T14:55:25.848Z,96981.28
2023-01-09T14:57:57.819Z,96979.66
2023-01-09T15:00:28.155Z,96989.53
2023-01-09T15:02:58.531Z,97005.94
2023-01-09T15:05:31.796Z,97010.56
2023-01-09T15:08:06.486Z,97009.84
2023-01-09T15:10:40.960Z,97016.56
2023-01-09T15:13:18.612Z,97030.63
2023-01-09T15:15:51.629Z,97022.56
2023-01-09T15:18:27.678Z,97033.16
2023-01-09T15:21:04.451Z,97038.09
2023-01-09T15:23:35.013Z,97048.44
2023-01-09T15:26:26.003Z,97041.81
2023-01-09T15:29:03.878Z,97045.28
2023-01-09T15:31:34.438Z,97050.72
2023-01-09T15:34:07.438Z,97049.63
2023-01-09T15:36:41.267Z,97048.94
2023-01-09T15:39:12.780Z,97058.44
2023-01-09T15:41:55.329Z,97052.84
2023-01-09T15:44:36.223Z,97047.19
2023-01-09T15:47:11.603Z,97046.97
2023-01-09T15:49:42.235Z,97050.47
2023-01-09T15:52:18.729Z,97056.13
2023-01-09T15:54:49.478Z,97054.31
2023-01-09T15:57:35.702Z,97054.31
2023-01-09T16:00:41.704Z,97046.88
2023-01-09T16:03:23.310Z,97061.59
2023-01-09T16:06:02.862Z,97062.34
2023-01-09T16:08:40.651Z,97072.03
2023-01-09T16:11:22.639Z,97083.31
2023-01-09T16:13:53.404Z,97097.34
2023-01-09T16:16:32.041Z,97109.06
2023-01-09T16:19:02.865Z,97119.66
2023-01-09T16:21:39.027Z,97119.16
2023-01-09T16:24:29.437Z,97126.34
2023-01-09T16:27:26.295Z,97134.09
2023-01-09T16:29:58.995Z,97136.38
2023-01-09T16:32:33.225Z,97132.56
2023-01-09T16:35:06.502Z,97132.72
2023-01-09T16:37:37.563Z,97132.72
2023-01-09T16:40:36.169Z,97138.66
2023-01-09T16:43:11.059Z,97140.03
2023-01-09T16:45:44.892Z,97153.59
2023-01-09T16:48:18.208Z,97152.47
2023-01-09T16:50:48.633Z,97167.38
2023-01-09T16:53:23.175Z,97166.56
2023-01-09T16:55:57.310Z,97168.91
2023-01-09T16:58:31.585Z,97169.34
2023-01-09T17:01:02.127Z,97168.13
2023-01-09T17:03:32.287Z,97177.53
2023-01-09T17:06:04.198Z,97164.91
2023-01-09T17:08:37.934Z,97170.59
2023-01-09T17:11:23.510Z,97180.31
2023-01-09T17:13:54.227Z,97190.06
2023-01-09T17:16:24.595Z,97201.56
2023-01-09T17:18:54.995Z,97204.25
2023-01-09T17:21:29.110Z,97196.25
2023-01-09T17:24:12.595Z,97198.59
2023-01-09T17:27:04.375Z,97197.38
2023-01-09T17:29:36.522Z,97203.13
2023-01-09T17:32:09.022Z,97197.97
2023-01-09T17:34:39.550Z,97195.34
2023-01-09T17:37:09.771Z,97198.22
2023-01-09T17:39:40.364Z,97196.19
2023-01-09T17:42:13.006Z,97205.44
2023-01-09T17:44:43.159Z,97206.41
2023-01-09T17:47:18.004Z,97209.00
2023-01-09T17:49:48.372Z,97211.78
2023-01-09T17:52:18.500Z,97206.63
2023-01-09T17:54:48.488Z,97204.03
2023-01-09T17:57:21.382Z,97208.59
2023-01-09T17:59:51.494Z,97210.31
2023-01-09T18:02:24.004Z,97224.16
2023-01-09T18:04:54.682Z,97213.00
2023-01-09T18:07:24.887Z,97223.03
2023-01-09T18:09:55.532Z,97214.69
2023-01-09T18:12:28.250Z,97229.81
2023-01-09T18:14:58.375Z,97241.03
2023-01-09T18:17:31.407Z,97247.19
2023-01-09T18:20:02.876Z,97253.59
2023-01-09T18:22:33.003Z,97261.44
2023-01-09T18:25:03.559Z,97271.78
2023-01-09T18:27:38.993Z,97271.53
2023-01-09T18:30:11.047Z,97279.69
2023-01-09T18:32:42.452Z,97291.38
2023-01-09T18:35:13.790Z,97290.25
2023-01-09T18:37:44.308Z,97298.22
2023-01-09T18:40:16.039Z,97305.72
2023-01-09T18:42:48.770Z,97307.53
2023-01-09T18:45:18.883Z,97310.31
2023-01-09T18:47:50.220Z,97319.41
2023-01-09T18:50:22.540Z,97318.13
2023-01-09T18:52:52.615Z,97318.97
2023-01-09T18:55:22.792Z,97329.84
2023-01-09T18:57:55.433Z,97333.13
2023-01-09T19:00:26.039Z,97337.25
2023-01-09T19:02:56.087Z,97344.66
2023-01-09T19:05:27.061Z,97353.16
2023-01-09T19:07:58.195Z,97360.31
2023-01-09T19:10:29.456Z,97359.28
2023-01-09T19:13:02.214Z,97366.84
2023-01-09T19:15:34.692Z,97367.44
2023-01-09T19:18:04.782Z,97372.00
2023-01-09T19:20:34.795Z,97382.13
2023-01-09T19:23:04.772Z,97389.53
2023-01-09T19:25:34.943Z,97396.00
2023-01-09T19:28:08.117Z,97396.94
2023-01-09T19:30:38.323Z,97404.03
2023-01-09T19:33:08.623Z,97402.50
2023-01-09T19:35:38.947Z,97410.66
2023-01-09T19:38:09.304Z,97404.84
2023-01-09T19:40:40.102Z,97414.13
2023-01-09T19:43:25.757Z,97419.78
2023-01-09T19:45:57.214Z,97420.72
2023-01-09T19:48:29.010Z,97422.03
2023-01-09T19:51:04.658Z,97429.13
2023-01-09T19:53:36.135Z,97424.56
2023-01-09T19:56:11.891Z,97435.88
2023-01-09T19:58:46.443Z,97438.38
2023-01-09T20:01:21.245Z,97442.84
2023-01-09T20:03:52.426Z,97453.69
2023-01-09T20:06:25.424Z,97453.19
2023-01-09T20:08:59.166Z,97448.78
2023-01-09T20:11:33.764Z,97448.47
2023-01-09T20:14:06.416Z,97454.47
2023-01-09T20:16:36.701Z,97449.59
2023-01-09T20:19:08.703Z,97442.66
2023-01-09T20:21:39.298Z,97448.97
2023-01-09T20:24:13.300Z,97457.97
2023-01-09T20:26:46.186Z,97458.91
2023-01-09T20:29:19.456Z,97471.03
2023-01-09T20:31:49.688Z,97473.66
2023-01-09T20:34:20.034Z,97477.13
2023-01-09T20:36:50.156Z,97483.28
2023-01-09T20:39:20.777Z,97486.28
2023-01-09T20:41:51.062Z,97493.53
2023-01-09T20:44:25.244Z,97494.81
2023-01-09T20:46:56.622Z,97499.41
2023-01-09T20:49:27.207Z,97504.28
2023-01-09T20:51:57.240Z,97502.72
2023-01-09T20:54:27.482Z,97504.91
2023-01-09T20:56:57.547Z,97498.31
2023-01-09T20:59:30.287Z,97505.88
2023-01-09T21:02:01.375Z,97505.22
2023-01-09T21:04:32.266Z,97498.31
2023-01-09T21:07:02.340Z,97502.06
2023-01-09T21:09:32.705Z,97492.63
2023-01-09T21:12:23.759Z,97501.13
2023-01-09T21:14:57.579Z,97497.34
2023-01-09T21:17:28.297Z,97508.22
2023-01-09T21:19:58.409Z,97514.97
2023-01-09T21:22:28.527Z,97513.56
2023-01-09T21:24:58.743Z,97514.00
2023-01-09T21:27:30.963Z,97514.50
2023-01-09T21:30:03.772Z,97531.66
2023-01-09T21:32:34.260Z,97524.06
2023-01-09T21:35:07.356Z,97535.25
2023-01-09T21:37:39.959Z,97534.78
2023-01-09T21:40:16.197Z,97539.16
2023-01-09T21:42:59.136Z,97545.72
2023-01-09T21:45:45.143Z,97547.78
2023-01-09T21:48:15.594Z,97549.16
2023-01-09T21:50:45.783Z,97557.41
2023-01-09T21:53:15.955Z,97564.03
2023-01-09T21:55:45.987Z,97573.78
2023-01-09T21:58:16.001Z,97583.56
2023-01-09T22:00:48.793Z,97580.88
2023-01-09T22:03:21.720Z,97584.47
2023-01-09T22:05:51.718Z,97590.84
2023-01-09T22:08:21.729Z,97590.31
2023-01-09T22:11:00.228Z,97598.84
2023-01-09T22:13:31.051Z,97601.38
2023-01-09T22:16:11.471Z,97592.06
2023-01-09T22:18:41.488Z,97592.38
2023-01-09T22:21:11.778Z,97595.22
2023-01-09T22:23:41.877Z,97601.38
2023-01-09T22:26:14.320Z,97610.22
2023-01-09T22:28:45.667Z,97613.38
2023-01-09T22:31:25.194Z,97623.59
2023-01-09T22:33:57.688Z,97621.09
2023-01-09T22:36:29.867Z,97633.41
2023-01-09T22:39:03.377Z,97633.69
2023-01-09T22:41:33.671Z,97640.00
2023-01-09T22:44:05.508Z,97648.22
2023-01-09T22:46:38.339Z,97654.94
2023-01-09T22:49:08.488Z,97662.25
2023-01-09T22:51:38.540Z,97664.91
2023-01-09T22:54:09.164Z,97668.72
2023-01-09T22:56:39.450Z,97669.31
2023-01-09T22:59:09.470Z,97671.84
2023-01-09T23:01:42.173Z,97674.03
2023-01-09T23:04:16.659Z,97677.84
2023-01-09T23:06:46.804Z,97680.69
2023-01-09T23:09:17.037Z,97682.25
2023-01-09T23:11:59.545Z,97686.66
2023-01-09T23:14:29.633Z,97677.22
2023-01-09T23:17:02.822Z,97688.59
2023-01-09T23:19:33.847Z,97690.78
2023-01-09T23:22:04.903Z,97698.66
2023-01-09T23:24:35.512Z,97701.97
2023-01-09T23:27:05.701Z,97710.31
2023-01-09T23:29:38.536Z,97704.34
2023-01-09T23:32:14.168Z,97726.72
2023-01-09T23:34:45.259Z,97731.13
2023-01-09T23:37:15.739Z,97738.03
2023-01-09T23:39:46.005Z,97739.63
2023-01-09T23:42:43.334Z,97730.44
2023-01-09T23:45:14.160Z,97728.56
2023-01-09T23:47:46.954Z,97730.78
2023-01-09T23:50:17.672Z,97732.06
2023-01-09T23:52:47.928Z,97739.28
2023-01-09T23:55:18.359Z,97738.19
2023-01-09T23:57:48.646Z,97748.09
